Time;durP1;ratioP1;P1;durP2;ratioP2;P2;SDS_P1;SDS_P2;PMS_P1;PMS_P2;Temp;Humidity;BMP_temperature;BMP_pressure;BME280_temperature;BME280_humidity;BME280_pressure;Samples;Min_cycle;Max_cycle;Signal;HPM_P1;HPM_P2
2023/10/20 00:00:15;;;;;;;;;;;13.60;99.90;;;;;;4993438;28;19933;-69
2023/10/20 00:02:42;;;;;;;;;;;13.70;99.90;;;;;;5000456;28;19926;-71
2023/10/20 00:05:09;;;;;;;;;;;13.70;99.90;;;;;;4994796;28;19926;-69
2023/10/20 00:07:36;;;;;;;;;;;13.70;99.90;;;;;;4995305;28;19926;-69
2023/10/20 00:10:03;;;;;;;;;;;13.70;99.90;;;;;;4993905;28;19934;-69
2023/10/20 00:12:30;;;;;;;;;;;13.70;99.90;;;;;;4995925;28;19926;-69
2023/10/20 00:14:56;;;;;;;;;;;13.70;99.90;;;;;;4999485;28;19925;-69
2023/10/20 00:17:24;;;;;;;;;;;13.60;99.90;;;;;;4997033;28;19926;-69
2023/10/20 00:19:51;;;;;;;;;;;13.70;99.90;;;;;;4997197;28;20427;-69
2023/10/20 00:22:17;;;;;;;;;;;13.70;99.90;;;;;;4994354;28;19926;-69
2023/10/20 00:24:45;;;;;;;;;;;13.70;99.90;;;;;;4998036;28;19925;-69
2023/10/20 00:27:11;;;;;;;;;;;13.70;99.90;;;;;;4995715;28;19930;-69
2023/10/20 00:29:38;;;;;;;;;;;13.70;99.90;;;;;;4999810;28;20450;-69
2023/10/20 00:32:05;;;;;;;;;;;13.70;99.90;;;;;;4995969;28;19930;-69
2023/10/20 00:34:33;;;;;;;;;;;13.70;99.90;;;;;;4995428;28;19930;-69
2023/10/20 00:36:59;;;;;;;;;;;13.70;99.90;;;;;;4998369;28;19931;-69
2023/10/20 00:39:26;;;;;;;;;;;13.70;99.90;;;;;;4997603;28;20289;-69
2023/10/20 00:41:53;;;;;;;;;;;13.70;99.90;;;;;;4996298;28;19933;-69
2023/10/20 00:44:20;;;;;;;;;;;13.70;99.90;;;;;;4992673;28;20400;-69
2023/10/20 00:46:46;;;;;;;;;;;13.60;99.90;;;;;;4998100;28;19925;-71
2023/10/20 00:49:13;;;;;;;;;;;13.60;99.90;;;;;;4996323;28;19925;-69
2023/10/20 00:51:41;;;;;;;;;;;13.60;99.90;;;;;;4999923;28;19980;-69
2023/10/20 00:54:13;;;;;;;;;;;13.60;99.90;;;;;;4995405;28;20392;-69
2023/10/20 00:56:40;;;;;;;;;;;13.60;99.90;;;;;;4997065;28;19984;-70
2023/10/20 00:59:07;;;;;;;;;;;13.60;99.90;;;;;;4997478;28;19983;-70
2023/10/20 01:01:33;;;;;;;;;;;13.60;99.90;;;;;;4995473;28;19926;-71
2023/10/20 01:04:00;;;;;;;;;;;13.60;99.90;;;;;;4998135;28;20012;-70
2023/10/20 01:06:26;;;;;;;;;;;13.50;99.90;;;;;;4993200;28;20540;-69
2023/10/20 01:08:56;;;;;;;;;;;13.50;99.90;;;;;;4999669;28;19934;-69
2023/10/20 01:11:23;;;;;;;;;;;13.50;99.90;;;;;;5001101;28;20515;-69
2023/10/20 01:13:50;;;;;;;;;;;13.50;99.90;;;;;;5004452;28;19930;-69
2023/10/20 01:16:16;;;;;;;;;;;13.50;99.90;;;;;;4998117;28;19926;-69
2023/10/20 01:18:44;;;;;;;;;;;13.50;99.90;;;;;;4996082;28;19980;-69
2023/10/20 01:21:11;;;;;;;;;;;13.50;99.90;;;;;;5000911;28;19930;-69
2023/10/20 01:23:38;;;;;;;;;;;13.50;99.90;;;;;;5003275;28;19973;-69
2023/10/20 01:26:05;;;;;;;;;;;13.50;99.90;;;;;;4999614;28;19972;-69
2023/10/20 01:28:32;;;;;;;;;;;13.50;99.90;;;;;;4999602;28;19936;-70
2023/10/20 01:30:58;;;;;;;;;;;13.50;99.90;;;;;;4999517;28;20438;-68
2023/10/20 01:33:25;;;;;;;;;;;13.50;99.90;;;;;;5001553;28;19926;-69
2023/10/20 01:35:52;;;;;;;;;;;13.50;99.90;;;;;;5003696;28;20475;-70
2023/10/20 01:38:18;;;;;;;;;;;13.50;99.90;;;;;;5000647;28;19972;-70
2023/10/20 01:40:45;;;;;;;;;;;13.50;99.90;;;;;;4996947;28;19925;-69
2023/10/20 01:43:13;;;;;;;;;;;13.50;99.90;;;;;;4996646;28;19955;-69
2023/10/20 01:45:39;;;;;;;;;;;13.50;99.90;;;;;;5003154;28;19925;-69
2023/10/20 01:48:06;;;;;;;;;;;13.50;99.90;;;;;;4995797;28;19984;-69
2023/10/20 01:50:33;;;;;;;;;;;13.50;99.90;;;;;;4997400;28;19957;-69
2023/10/20 01:52:59;;;;;;;;;;;13.50;99.90;;;;;;4994967;28;19926;-69
2023/10/20 01:55:26;;;;;;;;;;;13.50;99.90;;;;;;5000299;28;20024;-69
2023/10/20 01:57:52;;;;;;;;;;;13.50;99.90;;;;;;5003707;28;19929;-69
2023/10/20 02:00:22;;;;;;;;;;;13.50;99.90;;;;;;4998350;28;19930;-69
2023/10/20 02:02:48;;;;;;;;;;;13.50;99.90;;;;;;5000470;28;20419;-69
2023/10/20 02:05:15;;;;;;;;;;;13.50;99.90;;;;;;4997897;28;19925;-69
2023/10/20 02:07:42;;;;;;;;;;;13.50;99.90;;;;;;5003019;28;19957;-69
2023/10/20 02:10:10;;;;;;;;;;;13.50;99.90;;;;;;5000019;28;20375;-69
2023/10/20 02:12:36;;;;;;;;;;;13.50;99.90;;;;;;5001184;28;19926;-69
2023/10/20 02:15:04;;;;;;;;;;;13.40;99.90;;;;;;4996399;28;19926;-69
2023/10/20 02:17:32;;;;;;;;;;;13.40;99.90;;;;;;4996131;28;20582;-69
2023/10/20 02:19:58;;;;;;;;;;;13.40;99.90;;;;;;4996535;28;19932;-69
2023/10/20 02:22:25;;;;;;;;;;;13.40;99.90;;;;;;4995209;28;19976;-69
2023/10/20 02:24:53;;;;;;;;;;;13.40;99.90;;;;;;4998152;28;20304;-69
2023/10/20 02:27:19;;;;;;;;;;;13.40;99.90;;;;;;4994640;28;19932;-69
2023/10/20 02:29:46;;;;;;;;;;;13.30;99.90;;;;;;4999193;28;19932;-69
2023/10/20 02:32:12;;;;;;;;;;;13.40;99.90;;;;;;5000447;28;19933;-69
2023/10/20 02:34:41;;;;;;;;;;;13.30;99.90;;;;;;5000188;28;19926;-69
2023/10/20 02:37:09;;;;;;;;;;;13.40;99.90;;;;;;4993959;28;19933;-69
2023/10/20 02:39:35;;;;;;;;;;;13.40;99.90;;;;;;4998758;28;20020;-69
2023/10/20 02:42:02;;;;;;;;;;;13.40;99.90;;;;;;5001526;28;19929;-69
2023/10/20 02:44:30;;;;;;;;;;;13.40;99.90;;;;;;4999753;28;20388;-69
2023/10/20 02:46:56;;;;;;;;;;;13.40;99.90;;;;;;4999463;28;19929;-69
2023/10/20 02:49:23;;;;;;;;;;;13.30;99.90;;;;;;4995093;28;19984;-69
2023/10/20 02:51:50;;;;;;;;;;;13.30;99.90;;;;;;4994989;28;19925;-69
2023/10/20 02:54:17;;;;;;;;;;;13.30;99.90;;;;;;5000423;28;19926;-69
2023/10/20 02:56:44;;;;;;;;;;;13.30;99.90;;;;;;5003154;28;20008;-69
2023/10/20 02:59:12;;;;;;;;;;;13.30;99.90;;;;;;4997130;28;19933;-69
2023/10/20 03:01:38;;;;;;;;;;;13.20;99.90;;;;;;4996881;28;19941;-69
2023/10/20 03:04:05;;;;;;;;;;;13.10;99.90;;;;;;4999335;28;19972;-69
2023/10/20 03:06:32;;;;;;;;;;;13.10;99.90;;;;;;5001063;28;19988;-69
2023/10/20 03:09:00;;;;;;;;;;;13.10;99.90;;;;;;5000495;28;19965;-69
2023/10/20 03:11:26;;;;;;;;;;;13.10;99.90;;;;;;4993850;28;19926;-69
2023/10/20 03:13:53;;;;;;;;;;;13.10;99.90;;;;;;4999518;28;19982;-69
2023/10/20 03:16:19;;;;;;;;;;;13.10;99.90;;;;;;4995258;28;20343;-69
2023/10/20 03:18:46;;;;;;;;;;;13.10;99.90;;;;;;5002799;28;19956;-69
2023/10/20 03:21:12;;;;;;;;;;;13.10;99.90;;;;;;4996835;28;20351;-69
2023/10/20 03:23:43;;;;;;;;;;;13.20;99.90;;;;;;4997160;28;20049;-69
2023/10/20 03:26:12;;;;;;;;;;;13.20;99.90;;;;;;4999361;28;19926;-69
2023/10/20 03:28:39;;;;;;;;;;;13.20;99.90;;;;;;5001777;28;19926;-69
2023/10/20 03:31:05;;;;;;;;;;;13.20;99.90;;;;;;4998780;28;20316;-69
2023/10/20 03:33:32;;;;;;;;;;;13.20;99.90;;;;;;4994198;28;19972;-69
2023/10/20 03:36:01;;;;;;;;;;;13.20;99.90;;;;;;4997109;28;20327;-69
2023/10/20 03:38:28;;;;;;;;;;;13.20;99.90;;;;;;4997857;28;19930;-69
2023/10/20 03:40:55;;;;;;;;;;;13.20;99.90;;;;;;5002050;28;19931;-69
2023/10/20 03:43:24;;;;;;;;;;;13.20;99.90;;;;;;4992555;28;19926;-69
2023/10/20 03:45:51;;;;;;;;;;;13.20;99.90;;;;;;4995463;28;20348;-69
2023/10/20 03:48:19;;;;;;;;;;;13.10;99.90;;;;;;4997134;28;19933;-69
2023/10/20 03:50:48;;;;;;;;;;;13.10;99.90;;;;;;5002314;28;22397;-70
2023/10/20 03:53:21;;;;;;;;;;;13.10;99.90;;;;;;4996592;28;19926;-70
2023/10/20 03:55:57;;;;;;;;;;;13.10;99.90;;;;;;4994513;28;19925;-69
2023/10/20 03:58:24;;;;;;;;;;;13.10;99.90;;;;;;4997846;28;19934;-69
2023/10/20 04:00:52;;;;;;;;;;;13.10;99.90;;;;;;4999101;28;19930;-69
2023/10/20 04:03:19;;;;;;;;;;;13.10;99.90;;;;;;4995644;28;19925;-70
2023/10/20 04:05:45;;;;;;;;;;;13.10;99.90;;;;;;4996347;28;19972;-70
2023/10/20 04:08:13;;;;;;;;;;;13.10;99.90;;;;;;4995843;28;19933;-70
2023/10/20 04:10:40;;;;;;;;;;;13.10;99.90;;;;;;5000348;28;19941;-70
2023/10/20 04:13:07;;;;;;;;;;;13.10;99.90;;;;;;5001174;28;20347;-70
2023/10/20 04:15:36;;;;;;;;;;;13.10;99.90;;;;;;5001034;28;19926;-70
2023/10/20 04:18:04;;;;;;;;;;;13.10;99.90;;;;;;4993585;28;19929;-70
2023/10/20 04:20:30;;;;;;;;;;;13.10;99.90;;;;;;4994790;28;19936;-69
2023/10/20 04:22:58;;;;;;;;;;;13.10;99.90;;;;;;5001590;28;19932;-70
2023/10/20 04:25:27;;;;;;;;;;;13.00;99.90;;;;;;4993550;28;19926;-69
2023/10/20 04:27:57;;;;;;;;;;;13.00;99.90;;;;;;4997489;28;19973;-69
2023/10/20 04:58:18;;;;;;;;;;;13.00;99.90;;;;;;4950891;28;19942;-69
2023/10/20 05:00:43;;;;;;;;;;;12.90;99.90;;;;;;4942205;28;20369;-70
2023/10/20 05:03:22;;;;;;;;;;;12.90;99.90;;;;;;4975950;28;19988;-69
2023/10/20 05:05:58;;;;;;;;;;;12.90;99.90;;;;;;4987697;28;20036;-70
2023/10/20 05:08:25;;;;;;;;;;;12.90;99.90;;;;;;4997514;28;20000;-70
2023/10/20 05:10:53;;;;;;;;;;;12.90;99.90;;;;;;4999135;28;19996;-70
2023/10/20 05:13:22;;;;;;;;;;;12.90;99.90;;;;;;4998570;28;19926;-69
2023/10/20 05:15:50;;;;;;;;;;;12.90;99.90;;;;;;5000258;28;20443;-69
2023/10/20 05:18:16;;;;;;;;;;;12.90;99.90;;;;;;4999744;28;19925;-69
2023/10/20 05:20:45;;;;;;;;;;;12.90;99.90;;;;;;4997995;28;19934;-69
2023/10/20 05:23:14;;;;;;;;;;;12.90;99.90;;;;;;5000326;28;19925;-69
2023/10/20 05:25:45;;;;;;;;;;;12.90;99.90;;;;;;5005456;28;20370;-70
2023/10/20 05:28:12;;;;;;;;;;;12.90;99.90;;;;;;5004103;28;19925;-69
2023/10/20 05:30:42;;;;;;;;;;;12.90;99.90;;;;;;4996733;28;20447;-69
2023/10/20 05:33:09;;;;;;;;;;;12.90;99.90;;;;;;5000281;28;19929;-70
2023/10/20 05:35:35;;;;;;;;;;;12.90;99.90;;;;;;5003244;28;19926;-69
2023/10/20 05:38:02;;;;;;;;;;;12.90;99.90;;;;;;5001365;28;20289;-69
2023/10/20 05:40:30;;;;;;;;;;;12.90;99.90;;;;;;4996970;28;19929;-69
2023/10/20 05:42:56;;;;;;;;;;;12.90;99.90;;;;;;4998494;28;20406;-69
2023/10/20 05:45:24;;;;;;;;;;;12.90;99.90;;;;;;5000810;28;19926;-69
2023/10/20 05:47:51;;;;;;;;;;;12.90;99.90;;;;;;5003543;28;19925;-69
2023/10/20 05:50:17;;;;;;;;;;;12.90;99.90;;;;;;5002564;28;19973;-69
2023/10/20 05:52:44;;;;;;;;;;;12.90;99.90;;;;;;4998655;28;19929;-69
2023/10/20 05:55:10;;;;;;;;;;;12.90;99.90;;;;;;4996866;28;19988;-69
2023/10/20 05:57:38;;;;;;;;;;;12.90;99.90;;;;;;5001351;28;19972;-69
2023/10/20 06:00:05;;;;;;;;;;;12.90;99.90;;;;;;4999720;28;20400;-70
2023/10/20 06:02:33;;;;;;;;;;;12.90;99.90;;;;;;5000834;28;19941;-70
2023/10/20 06:04:59;;;;;;;;;;;12.90;99.90;;;;;;5001434;28;19933;-69
2023/10/20 06:07:27;;;;;;;;;;;13.00;99.90;;;;;;4995675;28;19926;-70
2023/10/20 06:09:54;;;;;;;;;;;12.90;99.90;;;;;;4999877;28;19937;-70
2023/10/20 06:12:20;;;;;;;;;;;12.90;99.90;;;;;;5000184;28;20302;-70
2023/10/20 06:14:49;;;;;;;;;;;12.90;99.90;;;;;;5004223;28;19971;-70
2023/10/20 06:17:18;;;;;;;;;;;12.90;99.90;;;;;;5002913;28;21601;-70
2023/10/20 06:19:44;;;;;;;;;;;12.90;99.90;;;;;;4998839;28;19929;-70
2023/10/20 06:22:11;;;;;;;;;;;12.90;99.90;;;;;;4998557;28;20415;-69
2023/10/20 06:24:37;;;;;;;;;;;12.90;99.90;;;;;;4998360;28;19981;-70
2023/10/20 06:27:04;;;;;;;;;;;12.90;99.90;;;;;;5004320;28;19929;-69
2023/10/20 06:29:42;;;;;;;;;;;12.90;99.90;;;;;;4998033;28;19926;-69
2023/10/20 06:32:21;;;;;;;;;;;12.80;99.90;;;;;;4998344;28;20380;-69
2023/10/20 06:34:48;;;;;;;;;;;12.80;99.90;;;;;;5000377;28;19925;-69
2023/10/20 06:37:22;;;;;;;;;;;12.80;99.90;;;;;;4997190;28;20407;-70
2023/10/20 06:39:49;;;;;;;;;;;12.80;99.90;;;;;;4992037;28;19949;-70
2023/10/20 06:42:16;;;;;;;;;;;12.80;99.90;;;;;;4999176;28;19929;-69
2023/10/20 06:44:43;;;;;;;;;;;12.80;99.90;;;;;;4997310;28;20024;-69
2023/10/20 06:47:11;;;;;;;;;;;12.80;99.90;;;;;;4997269;28;19926;-69
2023/10/20 06:49:38;;;;;;;;;;;12.80;99.90;;;;;;5002892;28;19925;-69
2023/10/20 06:52:04;;;;;;;;;;;12.80;99.90;;;;;;5001999;28;19939;-69
2023/10/20 06:54:31;;;;;;;;;;;12.70;99.90;;;;;;4993701;28;20012;-69
2023/10/20 06:56:58;;;;;;;;;;;12.80;99.90;;;;;;4997527;28;19980;-69
2023/10/20 06:59:24;;;;;;;;;;;12.80;99.90;;;;;;5000200;28;20392;-70
2023/10/20 07:01:56;;;;;;;;;;;12.80;99.90;;;;;;5001175;28;19972;-70
2023/10/20 07:04:23;;;;;;;;;;;12.80;99.90;;;;;;5002110;28;19926;-69
2023/10/20 07:06:51;;;;;;;;;;;12.80;99.90;;;;;;4994070;28;19925;-69
2023/10/20 07:09:17;;;;;;;;;;;12.80;99.90;;;;;;4991203;28;19938;-70
2023/10/20 07:11:44;;;;;;;;;;;12.80;99.90;;;;;;5004389;28;19999;-70
2023/10/20 07:14:11;;;;;;;;;;;12.80;99.90;;;;;;5001757;28;19930;-71
2023/10/20 07:16:37;;;;;;;;;;;12.70;99.90;;;;;;4997657;28;19933;-70
2023/10/20 07:19:04;;;;;;;;;;;12.80;99.90;;;;;;4993906;28;19989;-71
2023/10/20 07:21:32;;;;;;;;;;;12.80;99.90;;;;;;5000320;28;20439;-71
2023/10/20 07:23:59;;;;;;;;;;;12.80;99.90;;;;;;5000012;28;19929;-71
2023/10/20 07:26:26;;;;;;;;;;;12.80;99.90;;;;;;4996953;28;19933;-71
2023/10/20 07:28:53;;;;;;;;;;;12.80;99.90;;;;;;4994725;28;19926;-71
2023/10/20 07:31:21;;;;;;;;;;;12.80;99.90;;;;;;4997659;28;20340;-70
2023/10/20 07:33:49;;;;;;;;;;;12.80;99.90;;;;;;5000147;28;19926;-70
2023/10/20 07:36:15;;;;;;;;;;;12.80;99.90;;;;;;4998188;28;19930;-70
2023/10/20 07:38:44;;;;;;;;;;;12.80;99.90;;;;;;4996789;28;19948;-70
2023/10/20 07:41:11;;;;;;;;;;;12.80;99.90;;;;;;4993901;28;19926;-70
2023/10/20 07:43:39;;;;;;;;;;;12.80;99.90;;;;;;4996994;28;19933;-70
2023/10/20 07:46:05;;;;;;;;;;;12.80;99.90;;;;;;5000607;28;20644;-70
2023/10/20 07:48:32;;;;;;;;;;;12.80;99.90;;;;;;4997571;28;19952;-70
2023/10/20 07:51:00;;;;;;;;;;;12.80;99.90;;;;;;5004796;28;20379;-70
2023/10/20 07:53:27;;;;;;;;;;;12.80;99.90;;;;;;4993510;28;19925;-70
2023/10/20 07:55:54;;;;;;;;;;;12.80;99.90;;;;;;4997839;28;19925;-70
2023/10/20 07:58:21;;;;;;;;;;;12.80;99.90;;;;;;4999629;28;19926;-70
2023/10/20 08:00:47;;;;;;;;;;;12.80;99.90;;;;;;5004546;28;19929;-70
2023/10/20 08:03:14;;;;;;;;;;;12.90;99.90;;;;;;4998118;28;20435;-70
2023/10/20 08:05:41;;;;;;;;;;;12.90;99.90;;;;;;4997429;28;19953;-70
2023/10/20 08:08:07;;;;;;;;;;;12.90;99.90;;;;;;4995013;28;19925;-70
2023/10/20 08:10:34;;;;;;;;;;;12.90;99.90;;;;;;4998057;28;19980;-70
2023/10/20 08:13:02;;;;;;;;;;;12.90;99.90;;;;;;5000916;28;19925;-70
2023/10/20 08:15:29;;;;;;;;;;;12.90;99.90;;;;;;5001881;28;20011;-70
2023/10/20 08:17:56;;;;;;;;;;;13.00;99.90;;;;;;5002801;28;20001;-70
2023/10/20 08:20:22;;;;;;;;;;;13.00;99.90;;;;;;4999341;28;19926;-70
2023/10/20 08:22:49;;;;;;;;;;;13.00;99.90;;;;;;5002863;28;19933;-70
2023/10/20 08:25:15;;;;;;;;;;;13.00;99.90;;;;;;5003595;28;20389;-70
2023/10/20 08:27:42;;;;;;;;;;;13.10;99.90;;;;;;5007308;28;19926;-70
2023/10/20 08:30:11;;;;;;;;;;;13.10;99.90;;;;;;5006999;28;19925;-70
2023/10/20 08:32:38;;;;;;;;;;;13.20;99.90;;;;;;4998316;28;19925;-70
2023/10/20 08:35:07;;;;;;;;;;;13.20;99.90;;;;;;4998889;28;19925;-70
2023/10/20 08:37:34;;;;;;;;;;;13.20;99.90;;;;;;5002557;28;20413;-70
2023/10/20 08:40:00;;;;;;;;;;;13.30;99.90;;;;;;5007136;28;19929;-70
2023/10/20 08:42:27;;;;;;;;;;;13.30;99.90;;;;;;5005185;28;19988;-70
2023/10/20 08:44:53;;;;;;;;;;;13.30;99.90;;;;;;4999265;28;19926;-70
2023/10/20 08:47:23;;;;;;;;;;;13.40;99.90;;;;;;5000942;28;19926;-70
2023/10/20 08:49:50;;;;;;;;;;;13.40;99.90;;;;;;4999156;28;19933;-70
2023/10/20 08:52:17;;;;;;;;;;;13.30;99.90;;;;;;5000481;28;19925;-70
2023/10/20 08:54:44;;;;;;;;;;;13.30;99.90;;;;;;5008055;28;19983;-70
2023/10/20 08:57:12;;;;;;;;;;;13.30;99.90;;;;;;5002415;28;19996;-70
2023/10/20 08:59:38;;;;;;;;;;;13.30;99.90;;;;;;4997095;28;20396;-70
2023/10/20 09:02:05;;;;;;;;;;;13.30;99.90;;;;;;4999883;28;19937;-70
2023/10/20 09:04:33;;;;;;;;;;;13.30;99.90;;;;;;5002913;28;19926;-70
2023/10/20 09:07:03;;;;;;;;;;;13.40;99.90;;;;;;5005020;28;19988;-70
2023/10/20 09:09:29;;;;;;;;;;;13.50;99.90;;;;;;4996019;28;19925;-70
2023/10/20 09:11:56;;;;;;;;;;;13.60;99.90;;;;;;4996482;28;19930;-70
2023/10/20 09:14:22;;;;;;;;;;;13.70;99.90;;;;;;4999198;28;20637;-70
2023/10/20 09:16:51;;;;;;;;;;;13.80;99.90;;;;;;5002016;28;19930;-70
2023/10/20 09:19:18;;;;;;;;;;;13.90;99.90;;;;;;4999981;28;19926;-70
2023/10/20 09:21:47;;;;;;;;;;;14.00;99.90;;;;;;5005202;28;19938;-70
2023/10/20 09:24:15;;;;;;;;;;;14.00;99.90;;;;;;4999256;28;20288;-70
2023/10/20 09:26:43;;;;;;;;;;;14.10;99.90;;;;;;5004230;28;19957;-70
2023/10/20 09:29:10;;;;;;;;;;;14.10;99.90;;;;;;5004247;28;19925;-70
2023/10/20 09:31:36;;;;;;;;;;;14.20;99.90;;;;;;5003461;28;19933;-70
2023/10/20 09:34:04;;;;;;;;;;;14.30;99.90;;;;;;5000112;28;19925;-70
2023/10/20 09:36:31;;;;;;;;;;;14.40;99.90;;;;;;4998544;28;19925;-70
2023/10/20 09:39:00;;;;;;;;;;;14.50;99.90;;;;;;5003579;28;19925;-70
2023/10/20 09:41:28;;;;;;;;;;;14.60;99.90;;;;;;5005188;28;19929;-70
2023/10/20 09:44:02;;;;;;;;;;;14.80;99.90;;;;;;5008168;28;19926;-70
2023/10/20 09:46:36;;;;;;;;;;;14.90;99.90;;;;;;5000441;28;19930;-70
2023/10/20 09:49:09;;;;;;;;;;;15.00;99.90;;;;;;5002079;28;19988;-70
2023/10/20 09:51:36;;;;;;;;;;;15.10;99.90;;;;;;5004423;28;19930;-70
2023/10/20 09:54:04;;;;;;;;;;;15.20;99.90;;;;;;5007823;28;19957;-68
2023/10/20 09:56:31;;;;;;;;;;;15.20;99.90;;;;;;4999396;28;19987;-70
2023/10/20 09:58:58;;;;;;;;;;;15.20;99.90;;;;;;4996225;28;19929;-70
2023/10/20 10:01:25;;;;;;;;;;;15.10;99.90;;;;;;4997897;28;19926;-70
2023/10/20 10:03:59;;;;;;;;;;;15.00;99.90;;;;;;5004968;28;19926;-69
2023/10/20 10:06:26;;;;;;;;;;;15.00;99.90;;;;;;5004445;28;19926;-69
2023/10/20 10:08:53;;;;;;;;;;;15.00;99.90;;;;;;5005915;28;19972;-69
2023/10/20 10:11:27;;;;;;;;;;;15.00;99.90;;;;;;4994761;28;20392;-69
2023/10/20 10:13:54;;;;;;;;;;;15.00;99.90;;;;;;4997641;28;19939;-70
2023/10/20 10:16:22;;;;;;;;;;;14.90;99.90;;;;;;5001150;28;19926;-69
2023/10/20 10:18:50;;;;;;;;;;;14.90;99.90;;;;;;5004382;28;20332;-70
2023/10/20 10:21:24;;;;;;;;;;;14.90;99.90;;;;;;5005680;28;19936;-69
2023/10/20 10:24:09;;;;;;;;;;;14.90;99.90;;;;;;4987317;28;20422;-69
2023/10/20 10:26:45;;;;;;;;;;;15.00;99.90;;;;;;4998599;28;19926;-69
2023/10/20 10:29:12;;;;;;;;;;;15.00;99.90;;;;;;4999207;28;20319;-69
2023/10/20 10:31:39;;;;;;;;;;;15.10;99.90;;;;;;5004817;28;19932;-69
2023/10/20 10:34:05;;;;;;;;;;;15.30;99.90;;;;;;5005937;28;19933;-69
2023/10/20 10:36:42;;;;;;;;;;;15.40;99.90;;;;;;4997073;28;19926;-69
2023/10/20 10:39:08;;;;;;;;;;;15.40;99.90;;;;;;4994171;28;19929;-69
2023/10/20 10:41:35;;;;;;;;;;;15.30;99.90;;;;;;4999626;28;19925;-69
2023/10/20 10:44:03;;;;;;;;;;;15.30;99.90;;;;;;4999469;28;20350;-69
2023/10/20 10:46:36;;;;;;;;;;;15.20;99.90;;;;;;5001999;28;19933;-69
2023/10/20 10:49:05;;;;;;;;;;;15.20;99.90;;;;;;5005916;28;19929;-69
2023/10/20 10:51:32;;;;;;;;;;;15.30;99.90;;;;;;4994535;28;19957;-69
2023/10/20 10:53:58;;;;;;;;;;;15.50;99.90;;;;;;4998449;28;20383;-70
2023/10/20 10:56:25;;;;;;;;;;;15.90;99.90;;;;;;4999776;28;19984;-69
2023/10/20 10:58:51;;;;;;;;;;;16.30;99.90;;;;;;5006038;28;19933;-69
2023/10/20 11:01:19;;;;;;;;;;;16.40;99.90;;;;;;5004132;28;19976;-69
2023/10/20 11:03:46;;;;;;;;;;;16.70;99.90;;;;;;5003203;28;19937;-69
2023/10/20 11:06:12;;;;;;;;;;;16.70;99.90;;;;;;4995008;28;19930;-67
2023/10/20 11:08:44;;;;;;;;;;;16.60;99.90;;;;;;4997105;28;19926;-69
2023/10/20 11:11:10;;;;;;;;;;;16.40;99.90;;;;;;4998283;28;19933;-69
2023/10/20 11:13:37;;;;;;;;;;;16.10;99.90;;;;;;5002343;28;19925;-69
2023/10/20 11:16:04;;;;;;;;;;;16.00;99.90;;;;;;5006453;28;19972;-69
2023/10/20 11:18:32;;;;;;;;;;;15.80;99.90;;;;;;4992744;28;19930;-69
2023/10/20 11:21:00;;;;;;;;;;;15.60;99.90;;;;;;4996337;28;20616;-69
2023/10/20 11:23:30;;;;;;;;;;;15.50;99.90;;;;;;4999864;28;19925;-69
2023/10/20 11:25:57;;;;;;;;;;;15.40;99.90;;;;;;5006016;28;19971;-69
2023/10/20 11:28:23;;;;;;;;;;;15.40;99.90;;;;;;4998723;28;19926;-69
2023/10/20 11:30:50;;;;;;;;;;;15.40;99.90;;;;;;4998860;28;19934;-69
2023/10/20 11:33:16;;;;;;;;;;;15.40;99.90;;;;;;4995541;28;19926;-70
2023/10/20 11:35:45;;;;;;;;;;;15.40;99.90;;;;;;4998861;28;20050;-70
2023/10/20 11:38:13;;;;;;;;;;;15.40;99.90;;;;;;5003892;28;20293;-69
2023/10/20 11:40:41;;;;;;;;;;;15.40;99.90;;;;;;5005205;28;19925;-69
2023/10/20 11:43:08;;;;;;;;;;;15.40;99.90;;;;;;4999753;28;20367;-70
2023/10/20 11:45:35;;;;;;;;;;;15.40;99.90;;;;;;4994865;28;20350;-69
2023/10/20 11:48:02;;;;;;;;;;;15.40;99.90;;;;;;4998229;28;19925;-70
2023/10/20 11:50:28;;;;;;;;;;;15.50;99.90;;;;;;5000710;28;20385;-69
2023/10/20 11:52:56;;;;;;;;;;;15.50;99.90;;;;;;5002540;28;19926;-70
2023/10/20 11:55:23;;;;;;;;;;;15.50;99.90;;;;;;5004034;28;19967;-70
2023/10/20 11:57:49;;;;;;;;;;;15.60;99.90;;;;;;4993244;28;19930;-69
2023/10/20 12:00:17;;;;;;;;;;;15.60;99.90;;;;;;4996468;28;19933;-70
2023/10/20 12:02:43;;;;;;;;;;;15.60;99.90;;;;;;5001620;28;19930;-70
2023/10/20 12:05:11;;;;;;;;;;;15.50;99.90;;;;;;4998350;28;19929;-70
2023/10/20 12:07:37;;;;;;;;;;;15.40;99.90;;;;;;5004015;28;19977;-69
2023/10/20 12:10:06;;;;;;;;;;;15.30;99.90;;;;;;4991318;28;19933;-70
2023/10/20 12:12:33;;;;;;;;;;;15.30;99.90;;;;;;4995453;28;19925;-69
2023/10/20 12:15:00;;;;;;;;;;;15.20;99.90;;;;;;4999112;28;19925;-69
2023/10/20 12:17:26;;;;;;;;;;;15.10;99.90;;;;;;5000654;28;20047;-70
2023/10/20 12:19:53;;;;;;;;;;;15.10;99.90;;;;;;5004158;28;19930;-69
2023/10/20 12:22:19;;;;;;;;;;;15.00;99.90;;;;;;4998216;28;19926;-69
2023/10/20 12:24:46;;;;;;;;;;;15.00;99.90;;;;;;4993619;28;19926;-70
2023/10/20 12:27:13;;;;;;;;;;;14.90;99.90;;;;;;4996598;28;19934;-69
2023/10/20 12:29:40;;;;;;;;;;;14.90;99.90;;;;;;5001328;28;19926;-70
2023/10/20 12:32:10;;;;;;;;;;;14.90;99.90;;;;;;5005006;28;20446;-70
2023/10/20 12:34:36;;;;;;;;;;;14.80;99.90;;;;;;5001800;28;19934;-70
2023/10/20 12:37:03;;;;;;;;;;;14.80;99.90;;;;;;4991167;28;20462;-70
2023/10/20 12:39:31;;;;;;;;;;;14.80;99.90;;;;;;4995021;28;19926;-70
2023/10/20 12:42:02;;;;;;;;;;;14.80;99.90;;;;;;4999943;28;19925;-70
2023/10/20 12:44:30;;;;;;;;;;;14.70;99.90;;;;;;4999597;28;19929;-70
2023/10/20 12:46:57;;;;;;;;;;;14.70;99.90;;;;;;5000391;28;19961;-69
2023/10/20 12:49:23;;;;;;;;;;;14.60;99.90;;;;;;5003871;28;19983;-69
2023/10/20 12:51:50;;;;;;;;;;;14.60;99.90;;;;;;4994108;28;19980;-70
2023/10/20 12:54:16;;;;;;;;;;;14.60;99.90;;;;;;4996312;28;20383;-70
2023/10/20 12:56:43;;;;;;;;;;;14.50;99.90;;;;;;5001627;28;19944;-70
2023/10/20 12:59:09;;;;;;;;;;;14.50;99.90;;;;;;5000890;28;19995;-69
2023/10/20 13:01:37;;;;;;;;;;;14.50;99.90;;;;;;5003447;28;19980;-69
2023/10/20 13:04:04;;;;;;;;;;;14.40;99.90;;;;;;4998746;28;19973;-69
2023/10/20 13:06:30;;;;;;;;;;;14.40;99.90;;;;;;4998727;28;20396;-69
2023/10/20 13:08:57;;;;;;;;;;;14.40;99.90;;;;;;5001654;28;19941;-69
2023/10/20 13:11:23;;;;;;;;;;;14.40;99.90;;;;;;5002948;28;19926;-69
2023/10/20 13:13:50;;;;;;;;;;;14.40;99.90;;;;;;5006717;28;19926;-70
2023/10/20 13:16:17;;;;;;;;;;;14.50;99.90;;;;;;5007600;28;20446;-69
2023/10/20 13:18:44;;;;;;;;;;;14.50;99.90;;;;;;4995865;28;19925;-69
2023/10/20 13:21:11;;;;;;;;;;;14.40;99.90;;;;;;4999999;28;19929;-69
2023/10/20 13:23:38;;;;;;;;;;;14.40;99.90;;;;;;5000680;28;19985;-70
2023/10/20 13:26:05;;;;;;;;;;;14.40;99.90;;;;;;5004015;28;20363;-70
2023/10/20 13:28:31;;;;;;;;;;;14.50;99.90;;;;;;5006533;28;19980;-70
2023/10/20 13:31:03;;;;;;;;;;;14.50;99.90;;;;;;4995638;28;19929;-69
2023/10/20 13:33:30;;;;;;;;;;;14.50;99.90;;;;;;4999484;28;19932;-70
2023/10/20 13:36:01;;;;;;;;;;;14.50;99.90;;;;;;5004809;28;19979;-70
2023/10/20 13:38:29;;;;;;;;;;;14.50;99.90;;;;;;5005440;28;20385;-71
2023/10/20 13:40:56;;;;;;;;;;;14.50;99.90;;;;;;5006075;28;19930;-70
2023/10/20 13:43:22;;;;;;;;;;;14.50;99.90;;;;;;4994721;28;20395;-70
2023/10/20 13:45:49;;;;;;;;;;;14.50;99.90;;;;;;4996725;28;19933;-70
2023/10/20 13:48:15;;;;;;;;;;;14.50;99.90;;;;;;5000865;28;20640;-70
2023/10/20 13:50:42;;;;;;;;;;;14.50;99.90;;;;;;5001374;28;19934;-70
2023/10/20 13:53:12;;;;;;;;;;;14.50;99.90;;;;;;5008879;28;19971;-69
2023/10/20 13:55:39;;;;;;;;;;;14.50;99.90;;;;;;5000818;28;19929;-69
2023/10/20 13:58:06;;;;;;;;;;;14.60;99.90;;;;;;4996663;28;19957;-70
2023/10/20 14:00:33;;;;;;;;;;;14.60;99.90;;;;;;4999864;28;19980;-70
2023/10/20 14:03:00;;;;;;;;;;;14.60;99.90;;;;;;5005593;28;19961;-70
2023/10/20 14:05:29;;;;;;;;;;;14.70;99.90;;;;;;5005853;28;20299;-70
2023/10/20 14:07:55;;;;;;;;;;;14.70;99.90;;;;;;5004836;28;19930;-70
2023/10/20 14:10:23;;;;;;;;;;;14.80;99.90;;;;;;4991018;28;20392;-69
2023/10/20 14:12:50;;;;;;;;;;;14.90;99.90;;;;;;4998281;28;19930;-70
2023/10/20 14:15:16;;;;;;;;;;;15.00;99.90;;;;;;5001092;28;19925;-70
2023/10/20 14:17:43;;;;;;;;;;;15.00;99.90;;;;;;5007014;28;19926;-70
2023/10/20 14:20:10;;;;;;;;;;;15.10;99.90;;;;;;5008446;28;19934;-70
2023/10/20 14:22:36;;;;;;;;;;;15.10;99.90;;;;;;4994881;28;19984;-70
2023/10/20 14:25:03;;;;;;;;;;;15.10;99.90;;;;;;4997413;28;19937;-70
2023/10/20 14:27:33;;;;;;;;;;;15.10;99.90;;;;;;5001060;28;19933;-70
2023/10/20 14:30:00;;;;;;;;;;;15.20;99.90;;;;;;5006529;28;20020;-70
2023/10/20 14:32:26;;;;;;;;;;;15.30;99.90;;;;;;5005570;28;19926;-70
2023/10/20 14:34:53;;;;;;;;;;;15.30;99.90;;;;;;5004914;28;19926;-70
2023/10/20 14:37:19;;;;;;;;;;;15.30;99.90;;;;;;4994082;28;20343;-70
2023/10/20 14:39:46;;;;;;;;;;;15.40;99.90;;;;;;5000039;28;19972;-70
2023/10/20 14:42:12;;;;;;;;;;;15.30;99.90;;;;;;5001576;28;19929;-70
2023/10/20 14:44:40;;;;;;;;;;;15.30;99.90;;;;;;5006154;28;19929;-69